Flight Track Log - Related Links

Times and Time Zones

All times are in EDT time to prevent confusion due to time zone crossing. See the DAL268 flight status page for this flight to view local times or setup timezone preferences in your user account.

Time Position Orientation Groundspeed Altitude Reporting Facility
EDT Latitude Longitude Course Direction KTS MPH feet Rate Location/Type
Wed 00:01:21 40.6370 -73.7800 261° West  Level FlightAware ADS-B
Wed 00:06:44 40.6370 -73.7790 90° East 2 2 Level FlightAware ADS-B
Wed 00:07:12 40.6380 -73.7790 360° North 2 2 Level FlightAware ADS-B
Wed 00:09:00 40.5494 -73.5148 114° Southeast  Level FlightAware Approximate
Wed 00:10:00 40.5000 -73.3671 90° East  Level FlightAware Approximate
Wed 00:11:00 40.4567 -73.2168 105° East  Level FlightAware Approximate
Wed 00:12:00 40.4020 -73.0714 119° Southeast  Level FlightAware Approximate
Wed 00:12:53 40.6370 -73.7790 72° East 12 14  Level FlightAware ADS-B
Wed 00:13:00 40.3959 -72.9164 72° East  Level FlightAware Approximate
Wed 00:13:55 40.6360 -73.7780 143° Southeast 21 24  Level FlightAware ADS-B
Wed 00:14:39 40.6350 -73.7770 143° Southeast 14 16 11 Level FlightAware ADS-B
Wed 00:16:45 40.6410 -73.7720 32° Northeast 16 18 12 Level FlightAware ADS-B
Wed 00:17:06 40.6430 -73.7710 21° North 15 17 16 Level FlightAware ADS-B
Wed 00:17:37 40.6450 -73.7700 21° North 30 35 17 Level FlightAware ADS-B
Wed 00:18:51 40.6460 -73.7700 360° North 27 31 19 Level FlightAware ADS-B
Wed 00:19:47 40.6490 -73.7700 360° North 27 31 25 Level FlightAware ADS-B
Wed 00:20:15 40.6500 -73.7680 57° Northeast 29 33 32 Level FlightAware ADS-B
Wed 00:20:54 40.6500 -73.7670 90° East 24 28 38 Level FlightAware ADS-B
Wed 00:21:56 40.6480 -73.7650 143° Southeast 19 22 50 Level FlightAware ADS-B
Wed 00:22:39 40.6340 -73.7760 211° Southwest 145 167 102 Level FlightAware ADS-B
Wed 00:22:55 40.6240 -73.7840 211° Southwest 178 205 100 1,227 Climbing FlightAware ADS-B
Wed 00:23:23 40.6040 -73.7990 210° Southwest 177 204 900 1,750 Climbing FlightAware ADS-B
Wed 00:23:43 40.5890 -73.8100 209° Southwest 184 212 1,500 1,167 Climbing FlightAware ADS-B
Wed 00:23:59 40.5750 -73.8170 201° Southwest 210 242 1,600 818 Climbing FlightAware ADS-B
Wed 00:24:27 40.5460 -73.8100 170° South 246 283 2,100 1,050 Climbing FlightAware ADS-B
Wed 00:24:39 40.5350 -73.7990 143° Southeast 262 302 2,300 1,448 Climbing FlightAware ADS-B
Wed 00:24:56 40.5210 -73.7780 131° Southeast 279 321 2,800 1,800 Climbing FlightAware ADS-B
Wed 00:25:19 40.5090 -73.7410 113° Southeast 299 344 3,500 2,154 Climbing FlightAware ADS-B
Wed 00:25:35 40.5072 -73.7116 95° East 305 351 4,200 2,750 Climbing FlightAware ADS-B
Wed 00:25:43 40.5089 -73.6969 81° East 305 351 4,600 2,118 Climbing FlightAware ADS-B
Wed 00:25:52 40.5117 -73.6806 77° East 308 354 4,800 1,000 Climbing FlightAware ADS-B
Wed 00:26:07 40.5173 -73.6534 75° East 310 357 5,000 1,200 Climbing FlightAware ADS-B
Wed 00:26:22 40.5227 -73.6257 76° East 316 364 5,400 2,600 Climbing FlightAware ADS-B
Wed 00:26:37 40.5281 -73.5982 76° East 309 356 6,300 3,400 Climbing FlightAware ADS-B
Wed 00:26:52 40.5338 -73.5692 75° East 310 357 7,100 2,516 Climbing FlightAware ADS-B
Wed 00:27:08 40.5397 -73.5413 74° East 319 367 7,600 2,323 Climbing FlightAware ADS-B
Wed 00:27:23 40.5457 -73.5112 75° East 320 368 8,300 2,710 Climbing FlightAware ADS-B
Wed 00:27:39 40.5517 -73.4830 74° East 323 372 9,000 2,438 Climbing FlightAware ADS-B
Wed 00:27:55 40.5577 -73.4523 76° East 328 377 9,600 2,160 Climbing FlightAware ADS-B
Wed 00:28:04 40.5603 -73.4347 79° East 329 379 9,900 2,348 Climbing FlightAware ADS-B
Wed 00:28:18 40.5616 -73.4067 86° East 330 380 10,500 2,100 Climbing FlightAware ADS-B
Wed 00:28:24 40.5604 -73.3946 97° East 333 383 10,600 1,636 Climbing FlightAware ADS-B
Wed 00:28:29 40.5587 -73.3846 103° East 334 384 10,800 1,846 Climbing FlightAware ADS-B
Wed 00:28:37 40.5545 -73.3692 110° East 337 388 11,000 1,500 Climbing FlightAware ADS-B
Wed 00:28:41 40.5517 -73.3617 116° Southeast 339 390 11,100 1,333 Climbing FlightAware ADS-B
Wed 00:28:46 40.5477 -73.3525 120° Southeast 343 395 11,200 1,304 Climbing FlightAware ADS-B
Wed 00:29:04 40.5319 -73.3202 123° Southeast 359 413 11,600 1,320 Climbing FlightAware ADS-B
Wed 00:29:36 40.5049 -73.2567 119° Southeast 375 432 12,300 1,238 Climbing FlightAware ADS-B
Wed 00:30:07 40.4761 -73.1888 119° Southeast 411 473 12,900 1,286 Climbing FlightAware ADS-B
Wed 00:30:18 40.4660 -73.1669 121° Southeast 417 480 13,200 1,800 Climbing FlightAware ADS-B
Wed 00:30:27 40.4592 -73.1460 113° Southeast 421 484 13,500 1,895 Climbing FlightAware ADS-B
Wed 00:30:37 40.4537 -73.1213 106° East 425 489 13,800 1,875 Climbing FlightAware ADS-B
Wed 00:30:43 40.4516 -73.1061 100° East 426 490 14,000 2,667 Climbing FlightAware ADS-B
Wed 00:30:46 40.4509 -73.0958 95° East 426 490 14,200 1,953 Climbing FlightAware ADS-B
Wed 00:31:26 40.4605 -72.9945 83° East 434 499 15,400 1,952 Climbing FlightAware ADS-B
Wed 00:32:09 40.4830 -72.8830 75° East 446 513 16,900 2,123 Climbing FlightAware ADS-B
Wed 00:32:31 40.4950 -72.8251 75° East 450 518 17,700 1,909 Climbing FlightAware ADS-B
Wed 00:33:15 40.5189 -72.7071 75° East 459 528 19,000 1,674 Climbing FlightAware ADS-B
Wed 00:33:57 40.5421 -72.5892 75° East 468 539 20,100 1,636 Climbing FlightAware ADS-B
Wed 00:34:32 40.5610 -72.4911 76° East 478 550 21,100 1,636 Climbing FlightAware ADS-B
Wed 00:35:03 40.5788 -72.4063 75° East 484 557 21,900 1,594 Climbing FlightAware ADS-B
Wed 00:35:36 40.5980 -72.3121 75° East 488 562 22,800 1,636 Climbing FlightAware ADS-B
Wed 00:36:09 40.6166 -72.2171 76° East 491 565 23,700 1,538 Climbing FlightAware ADS-B
Wed 00:36:54 40.6420 -72.0860 76° East 497 572 24,800 1,313 Climbing FlightAware ADS-B
Wed 00:37:13 40.6530 -72.0298 76° East 492 566 25,100 1,180 Climbing FlightAware ADS-B
Wed 00:37:55 40.6772 -71.9046 76° East 504 580 26,000 841 Climbing FlightAware ADS-B
Wed 00:39:00 40.7120 -71.7280 75° East 512 589 26,600 353 Climbing FlightAware ADS-B
Wed 00:39:37 40.7310 -71.6330 75° East 512 589 26,600 1,899 Level FlightAware ADS-B
Wed 00:40:19 40.7620 -71.4650 76° East 517 595 29,100 2,025 Climbing FlightAware ADS-B
Wed 00:40:57 40.7910 -71.3690 68° East 515 593 29,300 1,213 Climbing FlightAware ADS-B
Wed 00:41:53 40.8660 -71.2080 58° Northeast 506 582 31,000 990 Climbing FlightAware ADS-B
Wed 00:42:40 40.9190 -71.0900 59° Northeast 511 588 31,000  Level FlightAware ADS-B
Wed 00:43:20 40.9670 -70.9830 59° Northeast 509 586 31,000  Level FlightAware ADS-B
Wed 00:44:05 41.0220 -70.8630 59° Northeast 509 586 31,000  Level FlightAware ADS-B
Wed 00:45:00 41.0860 -70.7200 59° Northeast 509 586 31,000  Level FlightAware ADS-B
Wed 00:46:00 41.1570 -70.5590 60° Northeast 510 587 31,000  Level FlightAware ADS-B
Wed 00:46:38 41.1970 -70.4730 58° Northeast 510 587 31,000  Level FlightAware ADS-B
Wed 00:47:24 41.2440 -70.3670 59° Northeast 510 587 31,000  Level FlightAware ADS-B
Wed 00:48:00 41.2810 -70.2850 59° Northeast 510 587 31,000  Level FlightAware ADS-B
Wed 00:48:36 41.3180 -70.2030 59° Northeast 510 587 31,000  Level FlightAware ADS-B
Wed 00:49:24 41.3680 -70.0930 59° Northeast 510 587 31,000  Level FlightAware ADS-B
Wed 00:50:01 41.4060 -70.0080 59° Northeast 510 587 31,000  Level FlightAware ADS-B
Wed 00:50:35 41.4410 -69.9300 59° Northeast 510 587 31,000  Level FlightAware ADS-B
Wed 00:51:15 41.5350 -69.6970 62° Northeast 31,000  Level FlightAware ADS-B
Wed 00:52:02 41.5830 -69.5800 61° Northeast 507 583 31,000  Level FlightAware ADS-B
Wed 00:52:51 41.6310 -69.4660 61° Northeast 507 583 31,000  Level FlightAware ADS-B
Wed 00:53:28 41.6660 -69.3800 61° Northeast 507 583 31,000  Level FlightAware ADS-B
Wed 00:54:04 41.7010 -69.2960 61° Northeast 507 583 31,000  Level FlightAware ADS-B
Wed 00:54:52 41.7470 -69.1840 61° Northeast 507 583 31,000  Level FlightAware ADS-B
Wed 00:55:29 41.7830 -69.0970 61° Northeast 507 583 31,000  Level FlightAware ADS-B
Wed 00:56:17 41.8300 -68.9850 61° Northeast 507 583 31,000  Level FlightAware ADS-B
Wed 00:57:00 41.9310 -68.7520 60° Northeast 508 585 31,000  Level FlightAware ADS-B
Wed 00:57:40 41.9810 -68.6300 61° Northeast 509 586 31,000  Level FlightAware ADS-B
Wed 00:58:30 42.0370 -68.4950 61° Northeast 510 587 31,000  Level FlightAware ADS-B
Wed 00:59:10 42.0760 -68.4010 61° Northeast 510 587 31,000  Level FlightAware ADS-B
Wed 01:00:12 42.1470 -68.2240 62° Northeast 510 587 31,000  Level FlightAware ADS-B
Wed 01:00:48 42.1820 -68.1390 61° Northeast 510 587 31,000  Level FlightAware ADS-B
Wed 01:01:36 42.2290 -68.0250 61° Northeast 510 587 31,000  Level FlightAware ADS-B
Wed 01:02:12 42.2860 -67.8810 62° Northeast 509 586 31,000  Level FlightAware ADS-B
Wed 01:03:13 42.3450 -67.7370 61° Northeast 509 586 31,000  Level FlightAware ADS-B
Wed 01:03:47 42.3780 -67.6560 61° Northeast 509 586 31,000  Level FlightAware ADS-B
Wed 01:04:36 42.4480 -67.4720 63° Northeast 31,000  Level FlightAware ADS-B
Wed 01:05:17 42.4931 -67.3622 63° Northeast 503 579 31,000 327 Level Boston Center
Wed 01:11:01 42.8560 -66.3840 63° Northeast 497 572 33,100 406 Climbing FlightAware ADS-B
Wed 01:11:41 42.8960 -66.2730 64° Northeast 498 573 33,600 519 Climbing FlightAware ADS-B
Wed 01:12:45 42.9620 -66.0880 64° Northeast 499 574 34,000 229 Climbing FlightAware ADS-B
Wed 01:13:26 43.0030 -65.9710 64° Northeast 498 573 34,000  Level FlightAware ADS-B
Wed 01:14:05 43.0430 -65.8590 64° Northeast 496 571 34,000  Level FlightAware ADS-B
Wed 01:14:46 43.0830 -65.7430 65° Northeast 497 572 34,000  Level FlightAware ADS-B
Wed 01:15:26 43.1220 -65.6320 64° Northeast 497 572 34,000  Level FlightAware ADS-B
Wed 01:16:06 43.1620 -65.5160 65° Northeast 496 571 34,000  Level FlightAware ADS-B
Wed 01:16:46 43.2000 -65.4050 65° Northeast 496 571 34,000  Level FlightAware ADS-B
Wed 01:17:31 43.2450 -65.2750 65° Northeast 495 570 34,000  Level FlightAware ADS-B
Wed 01:18:07 43.2800 -65.1720 65° Northeast 495 570 34,000  Level FlightAware ADS-B
Wed 01:18:52 43.3240 -65.0440 65° Northeast 495 570 34,000  Level FlightAware ADS-B
Wed 01:19:28 43.3590 -64.9420 65° Northeast 495 570 34,000  Level FlightAware ADS-B
Wed 01:20:08 43.3970 -64.8310 65° Northeast 495 570 34,000  Level FlightAware ADS-B
Wed 01:20:53 43.4410 -64.6990 65° Northeast 491 565 34,000  Level FlightAware ADS-B
Wed 01:21:39 43.4830 -64.5740 65° Northeast 495 570 34,000  Level FlightAware ADS-B
Wed 01:22:18 43.5190 -64.4650 65° Northeast 495 570 34,000  Level FlightAware ADS-B
Wed 01:23:01 43.5530 -64.3630 65° Northeast 495 570 34,000  Level FlightAware ADS-B
Wed 01:23:45 43.5960 -64.2350 65° Northeast 496 571 34,000  Level FlightAware ADS-B
Wed 01:24:19 43.6350 -64.1170 65° Northeast 496 571 34,000  Level FlightAware ADS-B
Wed 01:25:12 43.6860 -63.9580 66° East 499 574 34,000  Level FlightAware ADS-B
Wed 01:25:54 43.7240 -63.8440 65° Northeast 503 579 34,000  Level FlightAware ADS-B
Wed 01:26:46 43.7760 -63.6830 66° East 506 582 34,000  Level FlightAware ADS-B
Wed 01:27:24 43.8110 -63.5760 66° East 510 587 34,000  Level FlightAware ADS-B
Wed 01:28:09 43.8540 -63.4410 66° East 514 592 34,000  Level FlightAware ADS-B
Wed 01:29:05 43.9080 -63.2720 66° East 519 597 34,000  Level FlightAware ADS-B
Wed 01:29:47 43.9460 -63.1530 66° East 523 602 34,000  Level FlightAware ADS-B
Wed 01:30:27 43.9860 -63.0290 66° East 527 606 34,000  Level FlightAware ADS-B
Wed 01:31:08 44.0250 -62.9020 67° East 529 609 34,000  Level FlightAware ADS-B
Wed 01:31:50 44.0670 -62.7680 66° East 531 611 34,000  Level FlightAware ADS-B
Wed 01:32:33 44.1090 -62.6330 67° East 532 612 34,000  Level FlightAware ADS-B
Wed 01:33:26 44.1550 -62.4850 67° East 532 612 34,000  Level FlightAware ADS-B
Wed 01:34:15 44.1950 -62.3530 67° East 532 612 34,000  Level FlightAware ADS-B
Wed 01:35:01 44.2333 -62.1500 67° East 530 610 34,000  Level Gander Center
Wed 01:36:01 44.3000 -61.9500 65° Northeast 540 621 34,000  Level Gander Center
Wed 01:37:01 44.3667 -61.7667 63° Northeast 540 621 34,000  Level Gander Center
Wed 01:43:16 44.7290 -60.5590 63° Northeast 554 638 34,000  Level FlightAware ADS-B
Wed 01:43:55 44.7710 -60.4090 68° East 553 636 34,000  Level FlightAware ADS-B
Wed 01:44:39 44.8120 -60.2650 68° East 552 635 34,000  Level FlightAware ADS-B
Wed 01:45:53 44.8760 -60.0410 68° East 551 634 34,000  Level FlightAware ADS-B
Wed 01:46:45 44.9310 -59.8410 69° East 552 635 34,000  Level FlightAware ADS-B
Wed 01:47:27 44.9700 -59.7000 69° East 554 638 34,000  Level FlightAware ADS-B
Wed 01:48:10 45.0100 -59.5550 69° East 556 640 34,000  Level FlightAware ADS-B
Wed 01:48:51 45.0480 -59.4160 69° East 558 642 34,000  Level FlightAware ADS-B
Wed 01:49:32 45.0850 -59.2800 69° East 558 642 34,000  Level FlightAware ADS-B
Wed 01:50:15 45.1260 -59.1300 69° East 557 641 34,000  Level FlightAware ADS-B
Wed 01:50:55 45.1630 -58.9940 69° East 559 643 34,000  Level FlightAware ADS-B
Wed 01:51:33 45.1970 -58.8640 70° East 558 642 34,000  Level FlightAware ADS-B
Wed 01:52:13 45.2340 -58.7270 69° East 559 643 34,000  Level FlightAware ADS-B
Wed 01:52:57 45.2740 -58.5750 69° East 560 644 34,000  Level FlightAware ADS-B
Wed 01:53:33 45.3070 -58.4510 69° East 561 646 34,000  Level FlightAware ADS-B
Wed 01:54:13 45.3430 -58.3130 70° East 561 646 34,000  Level FlightAware ADS-B
Wed 01:54:55 45.3810 -58.1640 70° East 562 647 34,000  Level FlightAware ADS-B
Wed 01:55:31 45.4120 -58.0460 69° East 563 648 34,000  Level FlightAware ADS-B
Wed 01:56:11 45.4490 -57.9040 70° East 564 649 34,000  Level FlightAware ADS-B
Wed 01:57:23 45.5080 -57.6690 70° East 564 649 34,000  Level FlightAware ADS-B
Wed 01:57:59 45.5360 -57.5620 69° East 564 649 34,000  Level FlightAware ADS-B
Wed 01:58:47 45.5720 -57.4200 70° East 564 649 34,000  Level FlightAware ADS-B
Wed 01:59:23 45.5990 -57.3120 70° East 564 649 34,000  Level FlightAware ADS-B
Wed 02:00:43 45.6600 -57.0740 70° East 564 649 34,000  Level FlightAware ADS-B
Wed 02:01:24 45.7160 -56.8200 72° East 569 655 34,000  Level FlightAware ADS-B
Wed 02:02:01 45.7450 -56.6890 72° East 570 656 34,000  Level FlightAware ADS-B
Wed 02:02:52 45.7890 -56.4880 73° East 572 658 34,000  Level FlightAware ADS-B
Wed 02:03:32 45.8210 -56.3400 73° East 572 658 34,000  Level FlightAware ADS-B
Wed 02:04:13 45.8500 -56.2060 73° East 573 659 34,000  Level FlightAware ADS-B
Wed 02:04:56 45.8870 -56.0350 73° East 574 661 34,000  Level FlightAware ADS-B
Wed 02:05:42 45.9230 -55.8710 72° East 574 661 34,000  Level FlightAware ADS-B
Wed 02:06:27 45.9570 -55.7070 73° East 574 661 34,000  Level FlightAware ADS-B
Wed 02:07:07 45.9860 -55.5720 73° East 575 662 34,000  Level FlightAware ADS-B
Wed 02:07:47 46.0180 -55.4190 73° East 574 661 34,000  Level FlightAware ADS-B
Wed 02:08:47 46.0630 -55.1990 74° East 574 661 34,000  Level FlightAware ADS-B
Wed 02:09:27 46.0940 -55.0490 73° East 574 661 34,000  Level FlightAware ADS-B
Wed 02:10:21 46.1330 -54.8580 74° East 576 663 34,000  Level FlightAware ADS-B
Wed 02:10:57 46.1610 -54.7180 74° East 575 662 34,000  Level FlightAware ADS-B
Wed 02:11:42 46.1950 -54.5490 74° East 575 662 34,000  Level FlightAware ADS-B
Wed 02:12:22 46.2250 -54.4020 74° East 574 661 34,000  Level FlightAware ADS-B
Wed 02:12:58 46.2510 -54.2690 74° East 574 661 34,000  Level FlightAware ADS-B
Wed 02:13:39 46.2800 -54.1210 74° East 574 661 34,000  Level FlightAware ADS-B
Wed 02:14:18 46.3080 -53.9740 75° East 575 662 34,000  Level FlightAware ADS-B
Wed 02:15:52 46.3700 -53.6510 74° East 575 662 34,000  Level FlightAware ADS-B
Wed 02:16:36 46.4060 -53.4620 74° East 576 663 34,000  Level FlightAware ADS-B
Wed 02:17:16 46.4350 -53.3100 74° East 576 663 34,000  Level FlightAware ADS-B
Wed 02:18:00 46.4640 -53.1530 75° East 575 662 34,000  Level FlightAware ADS-B
Wed 02:18:42 46.4930 -52.9970 75° East 576 663 34,000  Level FlightAware ADS-B
Wed 02:19:32 46.5240 -52.8250 75° East 576 663 34,000  Level FlightAware ADS-B
Wed 02:20:12 46.5540 -52.6640 75° East 577 664 34,000  Level FlightAware ADS-B
Wed 02:20:57 46.5850 -52.4920 75° East 577 664 34,000  Level FlightAware ADS-B
Wed 02:21:31 46.6070 -52.3650 76° East 577 664 34,000  Level FlightAware ADS-B
Wed 02:22:17 46.6370 -52.1960 75° East 576 663 34,000  Level FlightAware ADS-B
Wed 02:22:56 46.6620 -52.0540 76° East 576 663 34,000  Level FlightAware ADS-B
Wed 02:23:41 46.6910 -51.8890 76° East 575 662 34,000  Level FlightAware ADS-B
Wed 02:24:32 46.7260 -51.6860 76° East 575 662 34,000  Level FlightAware ADS-B
Wed 02:25:11 46.7510 -51.5390 76° East 575 662 34,000  Level FlightAware ADS-B
Wed 02:25:56 46.7780 -51.3740 77° East 575 662 34,000  Level FlightAware ADS-B
Wed 02:26:27 46.7980 -51.2580 76° East 575 662 34,000  Level FlightAware ADS-B
Wed 02:27:12 46.8260 -51.0880 76° East 574 661 34,000  Level FlightAware ADS-B
Wed 02:27:51 46.8490 -50.9490 76° East 574 661 34,000  Level FlightAware ADS-B
Wed 02:28:40 46.8780 -50.7760 76° East 574 661 34,000  Level FlightAware ADS-B
Wed 02:29:16 46.8980 -50.6610 76° East 574 661 34,000  Level FlightAware ADS-B
Wed 02:31:02 46.9560 -50.3210 76° East 574 661 34,000  Level FlightAware ADS-B
Wed 02:31:39 46.9760 -50.2020 76° East 574 661 34,000  Level FlightAware ADS-B
Wed 02:32:28 47.0030 -50.0450 76° East 574 661 34,000  Level FlightAware ADS-B
Wed 02:33:04 47.0220 -49.9290 76° East 574 661 34,000  Level FlightAware ADS-B
Wed 02:33:53 47.0490 -49.7720 76° East 574 661 34,000  Level FlightAware ADS-B
Wed 02:34:30 47.0690 -49.6530 76° East 574 661 34,000  Level FlightAware ADS-B
Wed 02:35:29 47.1010 -49.4630 76° East 574 661 34,000  Level FlightAware ADS-B
Wed 02:36:05 47.1210 -49.3470 76° East 574 661 34,000  Level FlightAware ADS-B
Wed 02:36:41 47.1410 -49.2310 76° East 574 661 34,000  Level FlightAware ADS-B
Wed 02:37:29 47.1670 -49.0770 76° East 574 661 34,000  Level FlightAware ADS-B
Wed 02:38:05 47.1870 -48.9610 76° East 574 661 34,000  Level FlightAware ADS-B
Wed 02:39:01 47.2000 -48.3333 76° East 570 656 34,000  Level Gander Center
Wed 02:40:01 47.2333 -48.1000 78° East 570 656 34,000  Level Gander Center
Wed 02:41:01 47.2500 -47.9000 83° East 570 656 34,000  Level Gander Center
Wed 02:42:01 47.3000 -47.6500 73° East 560 644 34,000  Level Gander Center
Wed 02:44:01 47.3333 -47.2000 84° East 560 644 34,000 Level Gander Center
Wed 02:46:00 47.3845 -46.7852 80° East  Level FlightAware Approximate
Wed 02:53:00 47.5533 -45.3150 80° East  Level FlightAware Approximate
Wed 02:54:00 47.5758 -45.1043 81° East  Level FlightAware Approximate
Wed 02:55:00 47.5980 -44.8933 81° East  Level FlightAware Approximate
Wed 02:56:00 47.6198 -44.6822 81° East  Level FlightAware Approximate
Wed 02:57:00 47.6412 -44.4708 81° East  Level FlightAware Approximate
Wed 02:58:00 47.6622 -44.2594 82° East  Level FlightAware Approximate
Wed 02:59:00 47.6828 -44.0477 82° East  Level FlightAware Approximate
Wed 03:00:00 47.7031 -43.8359 82° East  Level FlightAware Approximate
Wed 03:01:00 47.7229 -43.6239 82° East  Level FlightAware Approximate
Wed 03:02:00 47.7424 -43.4118 82° East  Level FlightAware Approximate
Wed 03:03:00 47.7614 -43.1995 82° East  Level FlightAware Approximate
Wed 03:04:00 47.7801 -42.9870 82° East  Level FlightAware Approximate
Wed 03:05:00 47.7984 -42.7744 83° East  Level FlightAware Approximate
Wed 03:06:00 47.8163 -42.5617 83° East  Level FlightAware Approximate
Wed 03:07:00 47.8338 -42.3488 83° East  Level FlightAware Approximate
Wed 03:08:00 47.8509 -42.1357 83° East  Level FlightAware Approximate
Wed 03:09:00 47.8676 -41.9226 83° East  Level FlightAware Approximate
Wed 03:10:00 47.8839 -41.7092 83° East  Level FlightAware Approximate
Wed 03:11:00 47.8998 -41.4958 84° East  Level FlightAware Approximate
Wed 03:12:00 47.9153 -41.2822 84° East  Level FlightAware Approximate
Wed 03:13:00 47.9305 -41.0685 84° East  Level FlightAware Approximate
Wed 03:14:00 47.9452 -40.8547 84° East  Level FlightAware Approximate
Wed 03:15:00 47.9595 -40.6407 84° East  Level FlightAware Approximate
Wed 03:16:00 47.9734 -40.4267 84° East  Level FlightAware Approximate
Wed 03:17:00 47.9870 -40.2125 85° East  Level FlightAware Approximate
Wed 03:18:00 48.0005 -39.9980 69° East  Level FlightAware Approximate
Wed 03:19:00 48.0512 -39.7965 69° East  Level FlightAware Approximate
Wed 03:20:00 48.1016 -39.5945 69° East  Level FlightAware Approximate
Wed 03:21:00 48.1516 -39.3922 70° East  Level FlightAware Approximate
Wed 03:22:00 48.2012 -39.1895 70° East  Level FlightAware Approximate
Wed 03:23:00 48.2505 -38.9864 70° East  Level FlightAware Approximate
Wed 03:24:00 48.2994 -38.7829 70° East  Level FlightAware Approximate
Wed 03:25:00 48.3479 -38.5790 70° East  Level FlightAware Approximate
Wed 03:26:00 48.3961 -38.3747 70° East  Level FlightAware Approximate
Wed 03:27:00 48.4440 -38.1701 71° East  Level FlightAware Approximate
Wed 03:28:00 48.4915 -37.9650 71° East  Level FlightAware Approximate
Wed 03:29:00 48.5386 -37.7596 71° East  Level FlightAware Approximate
Wed 03:30:00 48.5853 -37.5538 71° East  Level FlightAware Approximate
Wed 03:31:00 48.6317 -37.3476 71° East  Level FlightAware Approximate
Wed 03:32:00 48.6777 -37.1410 71° East  Level FlightAware Approximate
Wed 03:33:00 48.7234 -36.9341 71° East  Level FlightAware Approximate
Wed 03:34:00 48.7686 -36.7268 72° East  Level FlightAware Approximate
Wed 03:35:00 48.8135 -36.5191 72° East  Level FlightAware Approximate
Wed 03:36:00 48.8580 -36.3110 72° East  Level FlightAware Approximate
Wed 03:37:00 48.9022 -36.1026 72° East  Level FlightAware Approximate
Wed 03:38:00 48.9459 -35.8938 72° East  Level FlightAware Approximate
Wed 03:39:00 48.9893 -35.6846 72° East  Level FlightAware Approximate
Wed 03:40:00 49.0323 -35.4751 73° East  Level FlightAware Approximate
Wed 03:41:00 49.0750 -35.2652 73° East  Level FlightAware Approximate
Wed 03:42:00 49.1172 -35.0550 73° East  Level FlightAware Approximate
Wed 03:43:00 49.1591 -34.8444 73° East  Level FlightAware Approximate
Wed 03:44:00 49.2006 -34.6334 73° East  Level FlightAware Approximate
Wed 03:45:00 49.2417 -34.4221 73° East  Level FlightAware Approximate
Wed 03:46:00 49.2824 -34.2104 73° East  Level FlightAware Approximate
Wed 03:47:00 49.3227 -33.9984 74° East  Level FlightAware Approximate
Wed 03:48:00 49.3627 -33.7861 74° East  Level FlightAware Approximate
Wed 03:49:00 49.4022 -33.5734 74° East  Level FlightAware Approximate
Wed 03:50:00 49.4414 -33.3603 74° East  Level FlightAware Approximate
Wed 03:51:00 49.4801 -33.1470 74° East  Level FlightAware Approximate
Wed 03:52:00 49.5185 -32.9333 74° East  Level FlightAware Approximate
Wed 03:53:00 49.5565 -32.7192 75° East  Level FlightAware Approximate
Wed 03:54:00 49.5941 -32.5048 75° East  Level FlightAware Approximate
Wed 03:55:00 49.6313 -32.2901 75° East  Level FlightAware Approximate
Wed 03:56:00 49.6681 -32.0751 75° East  Level FlightAware Approximate
Wed 03:57:00 49.7044 -31.8597 75° East  Level FlightAware Approximate
Wed 03:58:00 49.7404 -31.6440 75° East  Level FlightAware Approximate
Wed 03:59:00 49.7760 -31.4280 76° East  Level FlightAware Approximate
Wed 04:00:00 49.8112 -31.2117 76° East  Level FlightAware Approximate
Wed 04:01:00 49.8460 -30.9951 76° East  Level FlightAware Approximate
Wed 04:02:00 49.8804 -30.7782 76° East  Level FlightAware Approximate
Wed 04:03:00 49.9144 -30.5609 76° East  Level FlightAware Approximate
Wed 04:04:00 49.9479 -30.3434 76° East  Level FlightAware Approximate
Wed 04:05:00 49.9811 -30.1255 77° East  Level FlightAware Approximate
Wed 04:06:00 50.0135 -29.9073 77° East  Level FlightAware Approximate
Wed 04:07:00 50.0449 -29.6885 77° East  Level FlightAware Approximate
Wed 04:08:00 50.0760 -29.4695 77° East  Level FlightAware Approximate
Wed 04:09:00 50.1066 -29.2502 78° East  Level FlightAware Approximate
Wed 04:10:00 50.1368 -29.0306 78° East  Level FlightAware Approximate
Wed 04:11:00 50.1666 -28.8107 78° East  Level FlightAware Approximate
Wed 04:12:00 50.1960 -28.5905 78° East  Level FlightAware Approximate
Wed 04:13:00 50.2250 -28.3701 78° East  Level FlightAware Approximate
Wed 04:14:00 50.2536 -28.1494 78° East  Level FlightAware Approximate
Wed 04:15:00 50.2817 -27.9285 79° East  Level FlightAware Approximate
Wed 04:16:00 50.3094 -27.7073 79° East  Level FlightAware Approximate
Wed 04:17:00 50.3367 -27.4858 79° East  Level FlightAware Approximate
Wed 04:18:00 50.3636 -27.2641 79° East  Level FlightAware Approximate
Wed 04:19:00 50.3901 -27.0422 79° East  Level FlightAware Approximate
Wed 04:20:00 50.4161 -26.8200 79° East  Level FlightAware Approximate
Wed 04:21:00 50.4417 -26.5975 80° East  Level FlightAware Approximate
Wed 04:22:00 50.4669 -26.3748 80° East  Level FlightAware Approximate
Wed 04:23:00 50.4917 -26.1519 80° East  Level FlightAware Approximate
Wed 04:24:00 50.5160 -25.9287 80° East  Level FlightAware Approximate
Wed 04:25:00 50.5399 -25.7054 80° East  Level FlightAware Approximate
Wed 04:26:00 50.5634 -25.4818 81° East  Level FlightAware Approximate
Wed 04:27:00 50.5865 -25.2579 81° East  Level FlightAware Approximate
Wed 04:28:00 50.6091 -25.0339 81° East  Level FlightAware Approximate
Wed 04:29:00 50.6313 -24.8096 81° East  Level FlightAware Approximate
Wed 04:30:00 50.6530 -24.5851 81° East  Level FlightAware Approximate
Wed 04:31:00 50.6744 -24.3605 81° East  Level FlightAware Approximate
Wed 04:32:00 50.6953 -24.1356 82° East  Level FlightAware Approximate
Wed 04:33:00 50.7157 -23.9105 82° East  Level FlightAware Approximate
Wed 04:34:00 50.7358 -23.6852 82° East  Level FlightAware Approximate
Wed 04:35:00 50.7554 -23.4598 82° East  Level FlightAware Approximate
Wed 04:36:00 50.7745 -23.2341 82° East  Level FlightAware Approximate
Wed 04:37:00 50.7933 -23.0083 82° East  Level FlightAware Approximate
Wed 04:38:00 50.8115 -22.7823 83° East  Level FlightAware Approximate
Wed 04:39:00 50.8294 -22.5561 83° East  Level FlightAware Approximate
Wed 04:40:00 50.8468 -22.3297 83° East  Level FlightAware Approximate
Wed 04:41:00 50.8638 -22.1032 83° East  Level FlightAware Approximate
Wed 04:42:00 50.8803 -21.8765 83° East  Level FlightAware Approximate
Wed 04:43:00 50.8964 -21.6497 83° East  Level FlightAware Approximate
Wed 04:44:00 50.9121 -21.4227 84° East  Level FlightAware Approximate
Wed 04:45:00 50.9269 -21.2021 84° East  Level FlightAware Approximate
Wed 04:46:00 50.9412 -20.9814 84° East  Level FlightAware Approximate
Wed 04:47:00 50.9552 -20.7606 84° East  Level FlightAware Approximate
Wed 04:48:00 50.9687 -20.5396 84° East  Level FlightAware Approximate
Wed 04:49:00 50.9818 -20.3185 85° East  Level FlightAware Approximate
Wed 04:50:00 50.9945 -20.0973 85° East  Level FlightAware Approximate
Wed 04:51:00 50.9861 -19.8775 100° East  Level FlightAware Approximate
Wed 04:52:00 50.9611 -19.6590 100° East  Level FlightAware Approximate
Wed 04:53:00 50.9356 -19.4408 100° East  Level FlightAware Approximate
Wed 04:54:00 50.9097 -19.2228 101° East  Level FlightAware Approximate
Wed 04:55:00 50.8834 -19.0050 101° East  Level FlightAware Approximate
Wed 04:56:00 50.8567 -18.7875 101° East  Level FlightAware Approximate
Wed 04:57:00 50.8301 -18.5701 101° East  Level FlightAware Approximate
Wed 04:58:00 50.8033 -18.3529 101° East  Level FlightAware Approximate
Wed 04:59:00 50.7761 -18.1360 101° East  Level FlightAware Approximate
Wed 05:00:00 50.7484 -17.9193 101° East  Level FlightAware Approximate
Wed 05:01:00 50.7204 -17.7028 101° East  Level FlightAware Approximate
Wed 05:02:00 50.6920 -17.4866 102° East  Level FlightAware Approximate
Wed 05:03:00 50.6631 -17.2707 102° East  Level FlightAware Approximate
Wed 05:04:00 50.6339 -17.0551 102° East  Level FlightAware Approximate
Wed 05:05:00 50.6043 -16.8397 102° East  Level FlightAware Approximate
Wed 05:06:00 50.5742 -16.6246 102° East  Level FlightAware Approximate
Wed 05:07:00 50.5438 -16.4097 102° East  Level FlightAware Approximate
Wed 05:08:00 50.5130 -16.1952 103° East  Level FlightAware Approximate
Wed 05:09:00 50.4818 -15.9809 103° East  Level FlightAware Approximate
Wed 05:10:00 50.4502 -15.7669 103° East  Level FlightAware Approximate
Wed 05:11:00 50.4182 -15.5532 103° East  Level FlightAware Approximate
Wed 05:12:00 50.3858 -15.3398 103° East  Level FlightAware Approximate
Wed 05:13:00 50.3530 -15.1267 103° East  Level FlightAware Approximate
Wed 05:14:00 50.3196 -14.9139 104° East  Level FlightAware Approximate
Wed 05:15:00 50.2856 -14.7016 104° East  Level FlightAware Approximate
Wed 05:16:00 50.2511 -14.4896 104° East  Level FlightAware Approximate
Wed 05:17:00 50.2163 -14.2779 104° East  Level FlightAware Approximate
Wed 05:18:00 50.1810 -14.0665 105° East  Level FlightAware Approximate
Wed 05:19:00 50.1454 -13.8554 105° East  Level FlightAware Approximate
Wed 05:20:00 50.1094 -13.6446 105° East  Level FlightAware Approximate
Wed 05:21:00 50.0731 -13.4342 105° East  Level FlightAware Approximate
Wed 05:22:00 50.0363 -13.2241 105° East  Level FlightAware Approximate
Wed 05:23:00 49.9992 -13.0143 105° East  Level FlightAware Approximate
Wed 05:24:00 49.9617 -12.8048 105° East  Level FlightAware Approximate
Wed 05:25:00 49.9238 -12.5956 106° East  Level FlightAware Approximate
Wed 05:26:00 49.8855 -12.3868 106° East  Level FlightAware Approximate
Wed 05:27:00 49.8469 -12.1783 106° East  Level FlightAware Approximate
Wed 05:28:00 49.8078 -11.9702 106° East  Level FlightAware Approximate
Wed 05:29:00 49.7685 -11.7624 106° East  Level FlightAware Approximate
Wed 05:30:00 49.7287 -11.5549 106° East  Level FlightAware Approximate
Wed 05:31:00 49.6886 -11.3477 107° East  Level FlightAware Approximate
Wed 05:32:00 49.6481 -11.1409 107° East  Level FlightAware Approximate
Wed 05:33:00 49.6072 -10.9345 107° East  Level FlightAware Approximate
Wed 05:34:00 49.5660 -10.7284 107° East  Level FlightAware Approximate
Wed 05:35:00 49.5247 -10.5225 107° East  Level FlightAware Approximate
Wed 05:35:01 49.6450 -10.0030 107° East 518 596 35,000  Level FlightAware ADS-B
Wed 05:35:47 49.6040 -9.8680 115° Southeast 518 596 35,000  Level FlightAware ADS-B
Wed 05:36:27 49.5560 -9.7140 116° Southeast 518 596 35,000  Level FlightAware ADS-B
Wed 05:37:13 49.5080 -9.5610 116° Southeast 518 596 35,000  Level FlightAware ADS-B
Wed 05:38:10 49.4480 -9.3750 116° Southeast 521 600 35,000  Level FlightAware ADS-B
Wed 05:38:44 49.4130 -9.2660 116° Southeast 521 600 35,000  Level FlightAware ADS-B
Wed 05:39:24 49.3770 -9.1520 116° Southeast 521 600 35,000  Level FlightAware ADS-B
Wed 05:40:08 49.3214 -8.9786 116° Southeast 500 575 35,000  Level FlightAware UK
Wed 05:40:21 49.3100 -8.9420 116° Southeast 519 597 35,000  Level FlightAware ADS-B
Wed 05:41:08 49.2578 -8.7819 116° Southeast 500 575 35,000  Level FlightAware UK
Wed 05:41:21 49.2490 -8.7520 116° Southeast 514 592 35,000  Level FlightAware ADS-B
Wed 05:42:04 49.2000 -8.6030 117° Southeast 512 589 35,000  Level FlightAware ADS-B
Wed 05:42:38 49.1623 -8.4896 117° Southeast 500 575 35,000  Level FlightAware UK
Wed 05:42:38 49.1640 -8.4930 117° Southeast 511 588 35,000  Level FlightAware ADS-B
Wed 05:43:08 49.1303 -8.3931 117° Southeast 498 573 35,000  Level FlightAware UK
Wed 05:43:25 49.1140 -8.3420 117° Southeast 508 585 35,000  Level FlightAware ADS-B
Wed 05:44:05 49.0730 -8.2180 117° Southeast 506 582 35,000  Level FlightAware ADS-B
Wed 05:44:38 49.0349 -8.1060 117° Southeast 498 573 35,000  Level FlightAware UK
Wed 05:44:49 49.0250 -8.0750 117° Southeast 504 580 35,000  Level FlightAware ADS-B
Wed 05:44:57 49.0180 -8.0490 117° Southeast 503 579 35,000  Level FlightAware ADS-B
Wed 05:45:32 49.0000 -7.9258 117° Southeast 496 571 35,000  Level FlightAware UK
Wed 05:46:02 49.0015 -7.8202 117° Southeast 494 568 35,000  Level FlightAware UK
Wed 05:46:44 48.9795 -7.6780 103° East 494 568 35,000  Level FlightAware UK
Wed 05:47:05 48.9900 -7.6950 103° East 499 574 35,000  Level FlightAware ADS-B
Wed 05:47:16 48.9650 -7.6290 120° Southeast 499 574 35,000  Level FlightAware ADS-B
Wed 05:48:00 48.9180 -7.4770 115° Southeast 500 575 35,000  Level FlightAware ADS-B
Wed 05:48:44 48.8580 -7.2978 115° Southeast 494 568 35,000  Level FlightAware UK
Wed 05:48:46 48.8590 -7.3010 115° Southeast 502 578 35,000  Level FlightAware ADS-B
Wed 05:49:26 48.8160 -7.1690 116° Southeast 502 578 35,000  Level FlightAware ADS-B
Wed 05:50:07 48.7760 -7.0450 116° Southeast 499 574 35,000  Level FlightAware ADS-B
Wed 05:50:44 48.7347 -6.9193 116° Southeast 498 573 35,000  Level FlightAware UK
Wed 05:50:51 48.7340 -6.9160 116° Southeast 502 578 35,000  Level FlightAware ADS-B
Wed 05:51:25 48.6940 -6.7940 116° Southeast 500 575 35,000  Level FlightAware ADS-B
Wed 05:52:10 48.6500 -6.6590 116° Southeast 500 575 35,000  Level FlightAware ADS-B
Wed 05:52:45 48.6108 -6.5425 116° Southeast 494 568 35,000  Level FlightAware UK
Wed 05:52:50 48.6100 -6.5370 116° Southeast 500 575 35,000  Level FlightAware ADS-B
Wed 05:53:30 48.5660 -6.4060 117° Southeast 500 575 35,000  Level FlightAware ADS-B
Wed 05:54:10 48.5240 -6.2820 117° Southeast 501 577 35,000  Level FlightAware ADS-B
Wed 05:54:15 48.5179 -6.2623 117° Southeast 494 568 35,000  Level FlightAware UK
Wed 05:54:45 48.4865 -6.1690 117° Southeast 498 573 35,000  Level FlightAware UK
Wed 05:54:51 48.4820 -6.1540 117° Southeast 501 577 35,000  Level FlightAware ADS-B
Wed 05:55:21 48.4487 -6.0570 117° Southeast 496 571 35,000  Level FlightAware UK
Wed 05:55:34 48.4360 -6.0170 117° Southeast 501 577 35,000  Level FlightAware ADS-B
Wed 05:56:09 48.3982 -5.9078 117° Southeast 498 573 35,000  Level FlightAware UK
Wed 05:56:16 48.3910 -5.8870 117° Southeast 500 575 35,000  Level FlightAware ADS-B
Wed 05:56:54 48.3510 -5.7690 117° Southeast 499 574 35,000  Level FlightAware ADS-B
Wed 05:57:38 48.3060 -5.6370 117° Southeast 498 573 35,000  Level FlightAware ADS-B
Wed 05:58:16 48.2650 -5.5170 117° Southeast 496 571 35,000  Level FlightAware ADS-B
Wed 05:58:51 48.2273 -5.4085 117° Southeast 500 575 35,000  Level FlightAware UK
Wed 05:58:54 48.2250 -5.4010 117° Southeast 495 570 35,000  Level FlightAware ADS-B
Wed 05:59:38 48.1780 -5.2680 118° Southeast 494 568 35,000  Level FlightAware ADS-B
Wed 06:00:14 48.1400 -5.1590 118° Southeast 493 567 35,000  Level FlightAware ADS-B
Wed 06:01:02 48.0900 -5.0160 118° Southeast 495 570 35,000  Level FlightAware ADS-B
Wed 06:01:42 48.0470 -4.8920 117° Southeast 496 571 35,000  Level FlightAware ADS-B
Wed 06:02:22 48.0050 -4.7710 117° Southeast 496 571 35,000  Level FlightAware ADS-B
Wed 06:03:04 47.9590 -4.6440 118° Southeast 496 571 35,000  Level FlightAware ADS-B
Wed 06:03:48 47.9130 -4.5150 118° Southeast 496 571 35,000  Level FlightAware ADS-B
Wed 06:04:32 47.8640 -4.3790 118° Southeast 495 570 35,000  Level FlightAware ADS-B
Wed 06:05:12 47.8220 -4.2620 118° Southeast 495 570 35,000  Level FlightAware ADS-B
Wed 06:05:56 47.7740 -4.1270 118° Southeast 495 570 35,000  Level FlightAware ADS-B
Wed 06:06:34 47.7320 -4.0140 119° Southeast 495 570 35,000  Level FlightAware ADS-B
Wed 06:07:16 47.6850 -3.8880 119° Southeast 496 571 35,000  Level FlightAware ADS-B
Wed 06:08:00 47.6390 -3.7600 118° Southeast 496 571 35,000  Level FlightAware ADS-B
Wed 06:08:44 47.5890 -3.6250 119° Southeast 497 572 35,000  Level FlightAware ADS-B
Wed 06:09:24 47.5450 -3.5060 119° Southeast 497 572 35,000  Level FlightAware ADS-B
Wed 06:10:04 47.5000 -3.3870 119° Southeast 498 573 35,000  Level FlightAware ADS-B
Wed 06:10:40 47.4610 -3.2800 118° Southeast 498 573 35,000  Level FlightAware ADS-B
Wed 06:11:43 47.4010 -3.1230 119° Southeast 498 573 35,000  Level FlightAware ADS-B
Wed 06:12:26 47.3420 -2.9660 119° Southeast 498 573 35,000  Level FlightAware ADS-B
Wed 06:13:08 47.2940 -2.8410 119° Southeast 499 574 35,000  Level FlightAware ADS-B
Wed 06:13:50 47.2470 -2.7170 119° Southeast 499 574 35,000  Level FlightAware ADS-B
Wed 06:14:26 47.2060 -2.6100 119° Southeast 500 575 35,000  Level FlightAware ADS-B
Wed 06:15:53 47.1280 -2.4100 120° Southeast 501 577 35,000  Level FlightAware ADS-B
Wed 06:17:34 47.0030 -2.0960 120° Southeast 501 577 35,000  Level FlightAware ADS-B
Wed 06:18:13 46.9420 -1.9440 120° Southeast 500 575 35,000  Level FlightAware ADS-B
Wed 06:18:53 46.8940 -1.8250 121° Southeast 500 575 35,000  Level FlightAware ADS-B
Wed 06:19:38 46.8430 -1.7000 121° Southeast 501 577 35,000  Level FlightAware ADS-B
Wed 06:20:18 46.7940 -1.5810 121° Southeast 500 575 35,000  Level FlightAware ADS-B
Wed 06:20:54 46.7510 -1.4770 121° Southeast 500 575 35,000  Level FlightAware ADS-B
Wed 06:21:34 46.7030 -1.3610 121° Southeast 501 577 35,000  Level FlightAware ADS-B
Wed 06:22:14 46.6590 -1.2440 119° Southeast 500 575 35,000  Level FlightAware ADS-B
Wed 06:22:54 46.6210 -1.1250 115° Southeast 500 575 35,000  Level FlightAware ADS-B
Wed 06:23:34 46.5870 -1.0000 112° Southeast 500 575 35,000  Level FlightAware ADS-B
Wed 06:24:14 46.5540 -0.8710 110° East 500 575 35,000  Level FlightAware ADS-B
Wed 06:24:56 46.5220 -0.7480 111° Southeast 500 575 35,000  Level FlightAware ADS-B
Wed 06:25:56 46.4760 -0.5650 110° East 500 575 35,000  Level FlightAware ADS-B
Wed 06:26:35 46.4440 -0.4400 110° East 500 575 35,000  Level FlightAware ADS-B
Wed 06:27:15 46.4080 -0.3020 111° Southeast 499 574 35,000  Level FlightAware ADS-B
Wed 06:27:56 46.3760 -0.1770 110° East 499 574 35,000  Level FlightAware ADS-B
Wed 06:28:36 46.3450 -0.0620 111° Southeast 500 575 35,000  Level FlightAware ADS-B
Wed 06:29:16 46.3110 0.0660 111° Southeast 501 577 35,000  Level FlightAware ADS-B
Wed 06:29:56 46.2770 0.1970 111° Southeast 500 575 35,000  Level FlightAware ADS-B
Wed 06:31:05 46.2270 0.3840 111° Southeast 500 575 35,000  Level FlightAware ADS-B
Wed 06:31:46 46.1860 0.5360 111° Southeast 499 574 35,000  Level FlightAware ADS-B
Wed 06:32:31 46.1490 0.6650 112° Southeast 498 573 35,000  Level FlightAware ADS-B
Wed 06:33:06 46.1210 0.7670 112° Southeast 496 571 35,000  Level FlightAware ADS-B
Wed 06:33:51 46.0800 0.9130 112° Southeast 495 570 35,000  Level FlightAware ADS-B
Wed 06:34:31 46.0460 1.0350 112° Southeast 494 568 35,000  Level FlightAware ADS-B
Wed 06:35:16 46.0060 1.1750 112° Southeast 494 568 35,000  Level FlightAware ADS-B
Wed 06:35:58 45.9720 1.2960 112° Southeast 492 566 35,000  Level FlightAware ADS-B
Wed 06:36:41 45.9350 1.4300 112° Southeast 492 566 35,000  Level FlightAware ADS-B
Wed 06:37:26 45.8960 1.5720 111° Southeast 491 565 35,000  Level FlightAware ADS-B
Wed 06:38:06 45.8620 1.6930 112° Southeast 492 566 35,000  Level FlightAware ADS-B
Wed 06:38:46 45.8290 1.8070 113° Southeast 491 565 35,000  Level FlightAware ADS-B
Wed 06:39:31 45.7890 1.9480 112° Southeast 490 564 35,000  Level FlightAware ADS-B
Wed 06:40:11 45.7570 2.0620 112° Southeast 488 562 35,000  Level FlightAware ADS-B
Wed 06:40:51 45.7220 2.1840 112° Southeast 486 559 35,000  Level FlightAware ADS-B
Wed 06:41:36 45.6830 2.3170 113° Southeast 486 559 35,000  Level FlightAware ADS-B
Wed 06:42:16 45.6480 2.4390 112° Southeast 485 558 35,000  Level FlightAware ADS-B
Wed 06:43:01 45.6090 2.5740 112° Southeast 484 557 35,000  Level FlightAware ADS-B
Wed 06:43:45 45.5700 2.7070 113° Southeast 484 557 35,000  Level FlightAware ADS-B
Wed 06:44:37 45.5260 2.8570 113° Southeast 484 557 35,000  Level FlightAware ADS-B
Wed 06:46:36 45.4370 3.1550 113° Southeast 482 555 35,000  Level FlightAware ADS-B
Wed 06:47:23 45.3850 3.3270 113° Southeast 483 556 35,000  Level FlightAware ADS-B
Wed 06:48:21 45.3290 3.5120 113° Southeast 485 558 35,000  Level FlightAware ADS-B
Wed 06:49:01 45.2940 3.6310 113° Southeast 485 558 35,000  Level FlightAware ADS-B
Wed 06:49:35 45.2640 3.7310 113° Southeast 486 559 35,000  Level FlightAware ADS-B
Wed 06:50:23 45.2300 3.8760 108° East 485 558 35,000  Level FlightAware ADS-B
Wed 06:51:02 45.1920 3.9810 117° Southeast 487 560 35,000  Level FlightAware ADS-B
Wed 06:51:46 45.1360 4.1010 123° Southeast 488 562 35,000  Level FlightAware ADS-B
Wed 06:52:26 45.0860 4.2070 124° Southeast 488 562 35,000  Level FlightAware ADS-B
Wed 06:53:10 45.0300 4.3240 124° Southeast 488 562 35,000  Level FlightAware ADS-B
Wed 06:53:52 44.9770 4.4350 124° Southeast 487 560 35,000  Level FlightAware ADS-B
Wed 06:54:28 44.9330 4.5300 123° Southeast 487 560 35,000  Level FlightAware ADS-B
Wed 06:55:08 44.8810 4.6370 124° Southeast 486 559 35,000  Level FlightAware ADS-B
Wed 06:55:53 44.8250 4.7550 124° Southeast 485 558 35,000  Level FlightAware ADS-B
Wed 06:56:25 44.7840 4.8390 124° Southeast 485 558 35,000  Level FlightAware ADS-B
Wed 06:57:07 44.7320 4.9460 124° Southeast 486 559 35,000  Level FlightAware ADS-B
Wed 06:57:48 44.6790 5.0480 126° Southeast 485 558 35,000  Level FlightAware ADS-B
Wed 06:58:32 44.6060 5.1510 135° Southeast 487 560 35,000  Level FlightAware ADS-B
Wed 06:59:12 44.5430 5.2410 134° Southeast 487 560 35,000  Level FlightAware ADS-B
Wed 06:59:57 44.4740 5.3390 135° Southeast 487 560 35,000  Level FlightAware ADS-B
Wed 07:00:37 44.4100 5.4290 135° Southeast 487 560 35,000  Level FlightAware ADS-B
Wed 07:01:21 44.3400 5.5280 135° Southeast 487 560 35,000  Level FlightAware ADS-B
Wed 07:02:01 44.2760 5.6170 135° Southeast 488 562 35,000  Level FlightAware ADS-B
Wed 07:04:00 44.1884 5.9842 108° East  Level Estimated
Wed 07:05:00 44.1438 6.1690 109° East  Level Estimated
Wed 07:06:00 44.0989 6.3535 109° East  Level Estimated
Wed 07:07:00 44.0537 6.5377 109° East  Level Estimated
Wed 07:08:00 44.0082 6.7216 109° East  Level Estimated
Wed 07:09:00 43.9624 6.9052 109° East  Level Estimated
Wed 07:10:00 43.9163 7.0885 109° East  Level Estimated
Wed 07:10:04 43.5660 6.6880 109° East 497 572 35,000  Level FlightAware ADS-B
Wed 07:10:32 43.5250 6.7390 138° Southeast 497 572 35,000  Level FlightAware ADS-B
Wed 07:11:33 43.4360 6.8490 138° Southeast 497 572 35,000  Level FlightAware ADS-B
Wed 07:12:11 43.3810 6.9170 138° Southeast 497 572 35,000  Level FlightAware ADS-B
Wed 07:12:40 43.3150 7.0560 123° Southeast 502 578 35,000  Level FlightAware ADS-B
Wed 07:13:30 43.2830 7.1840 109° East 502 578 35,000  Level FlightAware ADS-B
Wed 07:14:09 43.2580 7.2840 109° East 502 578 35,000  Level FlightAware ADS-B
Wed 07:14:55 43.2280 7.4020 109° East 502 578 35,000  Level FlightAware ADS-B
Wed 07:15:45 43.1480 7.6000 119° Southeast 497 572 35,000 130 Level FlightAware ADS-B
Wed 07:16:27 43.1120 7.7190 112° Southeast 496 571 35,200 824 Climbing FlightAware ADS-B
Wed 07:17:27 43.0610 7.8900 112° Southeast 497 572 36,400 964 Climbing FlightAware ADS-B
Wed 07:18:19 43.0100 8.0630 112° Southeast 503 579 37,000 367 Climbing FlightAware ADS-B
Wed 07:19:05 42.9600 8.2250 113° Southeast 503 579 37,000  Level FlightAware ADS-B
Wed 07:19:44 42.9260 8.3420 112° Southeast 503 579 37,000  Level FlightAware ADS-B
Wed 07:20:27 42.8880 8.4650 113° Southeast 501 577 37,000  Level FlightAware ADS-B
Wed 07:21:08 42.8510 8.5870 112° Southeast 500 575 37,000  Level FlightAware ADS-B
Wed 07:21:52 42.8120 8.7140 113° Southeast 499 574 37,000  Level FlightAware ADS-B
Wed 07:22:24 42.7890 8.8070 109° East 500 575 37,000  Level FlightAware ADS-B
Wed 07:23:06 42.7620 8.9310 106° East 500 575 37,000  Level FlightAware ADS-B
Wed 07:23:52 42.7310 9.0720 107° East 501 577 37,000  Level FlightAware ADS-B
Wed 07:24:33 42.7050 9.1960 106° East 501 577 37,000  Level FlightAware ADS-B
Wed 07:25:08 42.6820 9.3020 106° East 500 575 37,000  Level FlightAware ADS-B
Wed 07:25:54 42.6420 9.4350 112° Southeast 500 575 37,000  Level FlightAware ADS-B
Wed 07:26:38 42.6030 9.5630 112° Southeast 501 577 37,000  Level FlightAware ADS-B
Wed 07:27:20 42.5640 9.6880 113° Southeast 500 575 37,000  Level FlightAware ADS-B
Wed 07:28:00 42.5290 9.8030 112° Southeast 499 574 37,000  Level FlightAware ADS-B
Wed 07:28:44 42.4890 9.9260 114° Southeast 500 575 37,000  Level FlightAware ADS-B
Wed 07:29:28 42.4310 10.0430 124° Southeast 498 573 37,000  Level FlightAware ADS-B
Wed 07:30:08 42.3830 10.1420 123° Southeast 498 573 37,000  Level FlightAware ADS-B
Wed 07:30:45 42.3370 10.2390 123° Southeast 499 574 37,000  Level FlightAware ADS-B
Wed 07:31:24 42.2860 10.3460 123° Southeast 499 574 37,000  Level FlightAware ADS-B
Wed 07:32:08 42.2290 10.4600 124° Southeast 500 575 37,000  Level FlightAware ADS-B
Wed 07:32:46 42.1790 10.5570 125° Southeast 501 577 37,000  Level FlightAware ADS-B
Wed 07:33:32 42.1180 10.6760 125° Southeast 503 579 37,000  Level FlightAware ADS-B
Wed 07:34:13 42.0650 10.7790 125° Southeast 504 580 37,000  Level FlightAware ADS-B
Wed 07:34:56 42.0080 10.8900 125° Southeast 505 581 37,000  Level FlightAware ADS-B
Wed 07:35:36 41.9540 10.9960 124° Southeast 506 582 37,000  Level FlightAware ADS-B
Wed 07:36:16 41.9010 11.1000 124° Southeast 505 581 37,000  Level FlightAware ADS-B
Wed 07:36:57 41.8480 11.2030 125° Southeast 506 582 37,000  Level FlightAware ADS-B
Wed 07:37:37 41.7940 11.3060 125° Southeast 507 583 37,000  Level FlightAware ADS-B
Wed 07:38:16 41.7400 11.4090 125° Southeast 509 586 37,000  Level FlightAware ADS-B
Wed 07:38:52 41.6910 11.5020 125° Southeast 508 585 37,000  Level FlightAware ADS-B
Wed 07:39:36 41.6330 11.6130 125° Southeast 508 585 37,000  Level FlightAware ADS-B
Wed 07:40:16 41.5790 11.7160 125° Southeast 508 585 37,000  Level FlightAware ADS-B
Wed 07:41:00 41.5180 11.8340 125° Southeast 508 585 37,000  Level FlightAware ADS-B
Wed 07:41:40 41.4640 11.9330 126° Southeast 506 582 37,000  Level FlightAware ADS-B
Wed 07:42:24 41.4040 12.0450 126° Southeast 506 582 37,000  Level FlightAware ADS-B
Wed 07:43:04 41.3520 12.1440 125° Southeast 506 582 37,000  Level FlightAware ADS-B
Wed 07:43:40 41.3060 12.2410 122° Southeast 507 583 37,000  Level FlightAware ADS-B
Wed 07:44:24 41.2640 12.3660 114° Southeast 507 583 37,000  Level FlightAware ADS-B
Wed 07:45:00 41.2270 12.4680 116° Southeast 508 585 37,000  Level FlightAware ADS-B
Wed 07:46:40 41.1430 12.6950 116° Southeast 508 585 37,000  Level FlightAware ADS-B
Wed 07:47:40 41.0870 12.8790 112° Southeast 513 590 37,000  Level FlightAware ADS-B
Wed 07:48:36 41.0170 13.0850 114° Southeast 515 593 37,000  Level FlightAware ADS-B
Wed 07:49:14 40.9790 13.1950 115° Southeast 515 593 37,000  Level FlightAware ADS-B
Wed 07:49:56 40.9380 13.3150 114° Southeast 515 593 37,000  Level FlightAware ADS-B
Wed 07:50:36 40.9000 13.4270 114° Southeast 515 593 37,000  Level FlightAware ADS-B
Wed 07:51:16 40.8600 13.5450 114° Southeast 517 595 37,000  Level FlightAware ADS-B
Wed 07:51:52 40.8240 13.6480 115° Southeast 519 597 37,000  Level FlightAware ADS-B
Wed 07:52:36 40.7800 13.7720 115° Southeast 522 601 37,000  Level FlightAware ADS-B
Wed 07:53:17 40.7390 13.8910 114° Southeast 524 603 37,000  Level FlightAware ADS-B
Wed 07:53:59 40.6970 14.0130 114° Southeast 527 606 37,000  Level FlightAware ADS-B
Wed 07:54:42 40.6510 14.1420 115° Southeast 529 609 37,000  Level FlightAware ADS-B
Wed 07:55:22 40.6230 14.2660 107° East 531 611 37,000  Level FlightAware ADS-B
Wed 07:56:07 40.5960 14.4030 105° East 532 612 37,000  Level FlightAware ADS-B
Wed 07:56:46 40.5720 14.5250 104° East 532 612 37,000  Level FlightAware ADS-B
Wed 07:57:30 40.5430 14.6620 106° East 531 611 37,000  Level FlightAware ADS-B
Wed 07:58:10 40.5180 14.7900 104° East 530 610 37,000  Level FlightAware ADS-B
Wed 07:58:54 40.4870 14.9260 107° East 528 608 37,000  Level FlightAware ADS-B
Wed 07:59:34 40.4530 15.0460 110° East 527 606 37,000  Level FlightAware ADS-B
Wed 08:00:14 40.4160 15.1640 112° Southeast 528 608 37,000  Level FlightAware ADS-B
Wed 08:00:58 40.3740 15.2900 114° Southeast 527 606 37,000  Level FlightAware ADS-B
Wed 08:01:40 40.3340 15.4170 112° Southeast 527 606 37,000  Level FlightAware ADS-B
Wed 08:02:24 40.2920 15.5460 113° Southeast 528 608 37,000  Level FlightAware ADS-B
Wed 08:03:08 40.2500 15.6720 114° Southeast 529 609 37,000  Level FlightAware ADS-B
Wed 08:03:40 40.2200 15.7660 113° Southeast 529 609 37,000  Level FlightAware ADS-B
Wed 08:04:23 40.1770 15.8960 113° Southeast 530 610 37,000  Level FlightAware ADS-B
Wed 08:05:03 40.1380 16.0130 114° Southeast 530 610 37,000  Level FlightAware ADS-B
Wed 08:05:40 40.1010 16.1180 115° Southeast 529 609 37,000  Level FlightAware ADS-B
Wed 08:06:21 40.0590 16.2370 115° Southeast 531 611 37,000  Level FlightAware ADS-B
Wed 08:06:56 40.0220 16.3390 115° Southeast 530 610 37,000  Level FlightAware ADS-B
Wed 08:07:44 39.9710 16.4800 115° Southeast 532 612 37,000  Level FlightAware ADS-B
Wed 08:08:28 39.9200 16.6050 118° Southeast 532 612 37,000  Level FlightAware ADS-B
Wed 08:09:09 39.8720 16.7170 119° Southeast 532 612 37,000  Level FlightAware ADS-B
Wed 08:09:50 39.8210 16.8330 120° Southeast 530 610 37,000  Level FlightAware ADS-B
Wed 08:10:28 39.7750 16.9380 120° Southeast 531 611 37,000  Level FlightAware ADS-B
Wed 08:12:18 39.6580 17.2070 119° Southeast 531 611 37,000  Level FlightAware ADS-B
Wed 08:13:26 39.5680 17.4050 120° Southeast 531 611 37,000  Level FlightAware ADS-B
Wed 08:14:06 39.5150 17.5230 120° Southeast 530 610 37,000  Level FlightAware ADS-B
Wed 08:14:47 39.4670 17.6300 120° Southeast 528 608 37,000  Level FlightAware ADS-B
Wed 08:15:27 39.4180 17.7390 120° Southeast 528 608 37,000  Level FlightAware ADS-B
Wed 08:16:08 39.3630 17.8590 121° Southeast 530 610 37,000  Level FlightAware ADS-B
Wed 08:16:48 39.3190 17.9570 120° Southeast 532 612 37,000  Level FlightAware ADS-B
Wed 08:17:37 39.2570 18.0920 121° Southeast 534 615 37,000  Level FlightAware ADS-B
Wed 08:18:13 39.2110 18.1930 120° Southeast 536 617 37,000  Level FlightAware ADS-B
Wed 08:18:53 39.1560 18.3120 121° Southeast 537 618 37,000  Level FlightAware ADS-B
Wed 08:19:35 39.1050 18.4220 121° Southeast 538 619 37,000  Level FlightAware ADS-B
Wed 08:20:31 39.0310 18.5820 121° Southeast 539 620 37,000  Level FlightAware ADS-B
Wed 08:21:12 38.9820 18.6890 120° Southeast 539 620 37,000  Level FlightAware ADS-B
Wed 08:21:49 38.9370 18.7860 121° Southeast 539 620 37,000  Level FlightAware ADS-B
Wed 08:22:37 38.8740 18.9200 121° Southeast 537 618 37,000  Level FlightAware ADS-B
Wed 08:23:17 38.8230 19.0280 121° Southeast 536 617 37,000  Level FlightAware ADS-B
Wed 08:24:03 38.7690 19.1490 120° Southeast 538 619 37,000  Level FlightAware ADS-B
Wed 08:24:43 38.7280 19.2690 114° Southeast 541 623 37,000  Level FlightAware ADS-B
Wed 08:25:24 38.6900 19.3880 112° Southeast 542 624 37,000  Level FlightAware ADS-B
Wed 08:26:05 38.6510 19.5060 113° Southeast 541 623 37,000  Level FlightAware ADS-B
Wed 08:26:52 38.6050 19.6510 112° Southeast 541 623 37,000  Level FlightAware ADS-B
Wed 08:27:37 38.5600 19.7860 113° Southeast 541 623 37,000  Level FlightAware ADS-B
Wed 08:28:17 38.5230 19.9010 112° Southeast 540 621 37,000  Level FlightAware ADS-B
Wed 08:28:57 38.4820 20.0240 113° Southeast 539 620 37,000  Level FlightAware ADS-B
Wed 08:29:37 38.4440 20.1380 113° Southeast 539 620 37,000  Level FlightAware ADS-B
Wed 08:32:00 38.3016 20.5223 115° Southeast  Level FlightAware Approximate
Wed 08:32:23 38.3080 20.5640 115° Southeast 540 621 37,000  Level FlightAware ADS-B
Wed 08:32:58 38.2800 20.6520 112° Southeast 540 621 37,000  Level FlightAware ADS-B
Wed 08:33:54 38.1900 20.8890 116° Southeast 528 608 37,000  Level FlightAware ADS-B
Wed 08:34:38 38.1320 21.0180 120° Southeast 525 604 37,000  Level FlightAware ADS-B
Wed 08:35:25 38.0740 21.1340 122° Southeast 519 597 37,000  Level FlightAware ADS-B
Wed 08:36:04 38.0180 21.2450 123° Southeast 522 601 37,000  Level FlightAware ADS-B
Wed 08:36:41 37.9680 21.3430 123° Southeast 522 601 37,000  Level FlightAware ADS-B
Wed 08:37:38 37.9060 21.4710 122° Southeast 522 601 37,000  Level FlightAware ADS-B
Wed 08:38:14 37.8670 21.5510 122° Southeast 522 601 37,000  Level FlightAware ADS-B
Wed 08:39:03 37.8130 21.6590 122° Southeast 522 601 37,000  Level FlightAware ADS-B
Wed 08:39:39 37.7740 21.7380 122° Southeast 522 601 37,000  Level FlightAware ADS-B
Wed 08:40:26 37.6950 21.9240 118° Southeast 522 601 37,000  Level FlightAware ADS-B
Wed 08:41:05 37.6470 22.0360 118° Southeast 521 600 37,000  Level FlightAware ADS-B
Wed 08:41:47 37.6060 22.1320 118° Southeast 521 600 37,000  Level FlightAware ADS-B
Wed 08:42:36 37.5590 22.2440 118° Southeast 521 600 37,000  Level FlightAware ADS-B
Wed 08:43:15 37.5140 22.3950 111° Southeast 524 603 37,000  Level FlightAware ADS-B
Wed 08:43:53 37.4780 22.4990 114° Southeast 524 603 37,000  Level FlightAware ADS-B
Wed 08:44:32 37.4390 22.6110 114° Southeast 523 602 37,000  Level FlightAware ADS-B
Wed 08:45:12 37.4010 22.7220 113° Southeast 523 602 37,000  Level FlightAware ADS-B
Wed 08:45:50 37.3640 22.8280 114° Southeast 523 602 37,000  Level FlightAware ADS-B
Wed 08:46:35 37.3220 22.9540 113° Southeast 524 603 37,000  Level FlightAware ADS-B
Wed 08:47:15 37.2840 23.0630 114° Southeast 525 604 37,000  Level FlightAware ADS-B
Wed 08:47:57 37.2420 23.1800 114° Southeast 526 605 37,000  Level FlightAware ADS-B
Wed 08:48:41 37.1990 23.3060 113° Southeast 527 606 37,000  Level FlightAware ADS-B
Wed 08:49:23 37.1590 23.4210 114° Southeast 526 605 37,000  Level FlightAware ADS-B
Wed 08:50:03 37.1190 23.5320 114° Southeast 526 605 37,000  Level FlightAware ADS-B
Wed 08:50:39 37.0840 23.6320 114° Southeast 526 605 37,000  Level FlightAware ADS-B
Wed 08:52:34 36.9830 23.9170 114° Southeast 530 610 37,000  Level FlightAware ADS-B
Wed 08:53:23 36.9190 24.0930 114° Southeast 530 610 37,000  Level FlightAware ADS-B
Wed 08:54:05 36.8770 24.2100 114° Southeast 529 609 37,000  Level FlightAware ADS-B
Wed 08:54:45 36.8370 24.3220 114° Southeast 527 606 37,000  Level FlightAware ADS-B
Wed 08:55:21 36.8010 24.4210 114° Southeast 524 603 37,000  Level FlightAware ADS-B
Wed 08:56:17 36.7520 24.5530 115° Southeast 523 602 37,000  Level FlightAware ADS-B
Wed 08:56:56 36.7070 24.6790 114° Southeast 521 600 37,000  Level FlightAware ADS-B
Wed 08:57:36 36.6660 24.7900 115° Southeast 519 597 37,000  Level FlightAware ADS-B
Wed 08:58:16 36.6260 24.8990 115° Southeast 519 597 37,000  Level FlightAware ADS-B
Wed 08:58:52 36.5910 24.9940 115° Southeast 519 597 37,000  Level FlightAware ADS-B
Wed 08:59:38 36.5440 25.1180 115° Southeast 518 596 37,000  Level FlightAware ADS-B
Wed 09:01:24 36.4520 25.3730 114° Southeast 519 597 37,000  Level FlightAware ADS-B
Wed 09:02:05 36.4090 25.4810 116° Southeast 521 600 37,000  Level FlightAware ADS-B
Wed 09:02:53 36.3450 25.6490 115° Southeast 523 602 37,000  Level FlightAware ADS-B
Wed 09:03:37 36.2990 25.7690 115° Southeast 524 603 37,000  Level FlightAware ADS-B
Wed 09:04:17 36.2590 25.8780 114° Southeast 523 602 37,000  Level FlightAware ADS-B
Wed 09:05:01 36.2140 25.9940 116° Southeast 523 602 37,000  Level FlightAware ADS-B
Wed 09:05:41 36.1720 26.1050 115° Southeast 523 602 37,000  Level FlightAware ADS-B
Wed 09:06:24 36.1280 26.2190 116° Southeast 524 603 37,000  Level FlightAware ADS-B
Wed 09:07:03 36.0870 26.3260 115° Southeast 519 597 37,000  Level FlightAware ADS-B
Wed 09:07:49 36.0390 26.4490 116° Southeast 518 596 37,000  Level FlightAware ADS-B
Wed 09:08:29 35.9970 26.5560 116° Southeast 518 596 37,000  Level FlightAware ADS-B
Wed 09:09:09 35.9550 26.6650 115° Southeast 519 597 37,000  Level FlightAware ADS-B
Wed 09:09:41 35.9220 26.7470 116° Southeast 519 597 37,000  Level FlightAware ADS-B
Wed 09:10:49 35.8560 26.9160 116° Southeast 519 597 37,000  Level FlightAware ADS-B
Wed 09:11:39 35.8070 27.0440 115° Southeast 519 597 37,000  Level FlightAware ADS-B
Wed 09:12:29 35.7640 27.1580 115° Southeast 519 597 37,000  Level FlightAware ADS-B
Wed 09:13:06 35.7320 27.2420 115° Southeast 519 597 37,000  Level FlightAware ADS-B
Wed 09:13:55 35.6900 27.3540 115° Southeast 519 597 37,000  Level FlightAware ADS-B
Wed 09:14:43 35.6480 27.4630 115° Southeast 519 597 37,000  Level FlightAware ADS-B
Wed 09:15:59 35.5830 27.6360 115° Southeast 519 597 37,000  Level FlightAware ADS-B
Wed 09:16:41 35.5460 27.7320 115° Southeast 519 597 37,000  Level FlightAware ADS-B
Wed 09:17:49 35.4150 28.0220 119° Southeast 521 600 37,000  Level FlightAware ADS-B
Wed 09:18:25 35.3840 28.1040 115° Southeast 521 600 37,000  Level FlightAware ADS-B
Wed 09:19:14 35.3410 28.2150 115° Southeast 521 600 37,000  Level FlightAware ADS-B
Wed 09:19:53 35.2720 28.3680 119° Southeast 515 593 37,000  Level FlightAware ADS-B
Wed 09:20:34 35.2350 28.4600 116° Southeast 514 592 37,000  Level FlightAware ADS-B
Wed 09:21:22 35.1940 28.5680 115° Southeast 514 592 37,000  Level FlightAware ADS-B
Wed 09:22:04 35.1310 28.7070 119° Southeast 510 587 37,000  Level FlightAware ADS-B
Wed 09:22:49 35.0830 28.8230 117° Southeast 506 582 37,000  Level FlightAware ADS-B
Wed 09:23:26 35.0510 28.9040 116° Southeast 506 582 37,000  Level FlightAware ADS-B
Wed 09:24:10 34.9960 29.0290 118° Southeast 504 580 37,000  Level FlightAware ADS-B
Wed 09:24:49 34.9620 29.1140 116° Southeast 504 580 37,000  Level FlightAware ADS-B
Wed 09:25:38 34.9190 29.2210 116° Southeast 504 580 37,000  Level FlightAware ADS-B
Wed 09:26:14 34.8660 29.3390 119° Southeast 509 586 37,000  Level FlightAware ADS-B
Wed 09:27:06 34.8070 29.4800 117° Southeast 509 586 37,000  Level FlightAware ADS-B
Wed 09:27:46 34.7630 29.5820 118° Southeast 508 585 37,000  Level FlightAware ADS-B
Wed 09:28:27 34.7170 29.6860 118° Southeast 504 580 37,000  Level FlightAware ADS-B
Wed 09:29:06 34.6710 29.7820 120° Southeast 507 583 37,000  Level FlightAware ADS-B
Wed 09:30:00 34.6160 29.9000 120° Southeast 504 580 37,000  Level FlightAware ADS-B
Wed 09:30:47 34.5530 30.0310 120° Southeast 502 578 37,000  Level FlightAware ADS-B
Wed 09:31:24 34.5120 30.1180 120° Southeast 502 578 37,000  Level FlightAware ADS-B
Wed 09:32:05 34.4630 30.2210 120° Southeast 504 580 37,000  Level FlightAware ADS-B
Wed 09:32:50 34.4080 30.3370 120° Southeast 504 580 37,000  Level FlightAware ADS-B
Wed 09:33:26 34.3660 30.4260 120° Southeast 505 581 37,000  Level FlightAware ADS-B
Wed 09:34:07 34.3190 30.5240 120° Southeast 504 580 37,000  Level FlightAware ADS-B
Wed 09:34:47 34.2720 30.6220 120° Southeast 508 585 37,000  Level FlightAware ADS-B
Wed 09:35:33 34.2170 30.7350 120° Southeast 508 585 37,000  Level FlightAware ADS-B
Wed 09:36:09 34.1770 30.8190 120° Southeast 508 585 37,000  Level FlightAware ADS-B
Wed 09:36:55 34.1200 30.9360 120° Southeast 507 583 37,000  Level FlightAware ADS-B
Wed 09:37:39 34.0670 31.0460 120° Southeast 507 583 37,000  Level FlightAware ADS-B
Wed 09:38:34 34.0020 31.1800 120° Southeast 507 583 37,000  Level FlightAware ADS-B
Wed 09:39:15 33.9530 31.2780 121° Southeast 508 585 37,000  Level FlightAware ADS-B
Wed 09:39:44 33.9180 31.3510 120° Southeast 509 586 37,000  Level FlightAware ADS-B
Wed 09:40:27 33.8700 31.4490 121° Southeast 509 586 37,000  Level FlightAware ADS-B
Wed 09:41:10 33.8160 31.5580 121° Southeast 510 587 37,000  Level FlightAware ADS-B
Wed 09:41:51 33.7660 31.6610 120° Southeast 511 588 37,000  Level FlightAware ADS-B
Wed 09:42:37 33.7110 31.7710 121° Southeast 511 588 37,000  Level FlightAware ADS-B
Wed 09:43:16 33.6640 31.8660 121° Southeast 511 588 37,000  Level FlightAware ADS-B
Wed 09:44:02 33.6070 31.9780 121° Southeast 511 588 37,000  Level FlightAware ADS-B
Wed 09:44:37 33.5650 32.0630 121° Southeast 511 588 37,000  Level FlightAware ADS-B
Wed 09:45:51 33.4890 32.2130 121° Southeast 510 587 37,000  Level FlightAware ADS-B
Wed 09:46:33 33.4250 32.3410 121° Southeast 506 582 37,000  Level FlightAware ADS-B
Wed 09:47:17 33.3710 32.4500 121° Southeast 506 582 37,000  Level FlightAware ADS-B
Wed 09:47:55 33.3320 32.5270 121° Southeast 506 582 37,000  Level FlightAware ADS-B
Wed 09:48:48 33.2620 32.6640 121° Southeast 506 582 37,000  Level FlightAware ADS-B
Wed 09:49:27 33.2080 32.7680 122° Southeast 508 585 37,000 -667 Level FlightAware ADS-B
Wed 09:50:09 33.1630 32.8590 121° Southeast 506 582 36,100 -1,636 Descending FlightAware ADS-B
Wed 09:50:55 33.1000 32.9800 122° Southeast 520 598 34,600 -1,753 Descending FlightAware ADS-B
Wed 09:51:38 33.0480 33.0810 122° Southeast 525 604 33,500 -1,425 Descending FlightAware ADS-B
Wed 09:52:15 33.0050 33.1650 121° Southeast 526 605 32,700 -2,200 Descending FlightAware ADS-B
Wed 09:53:08 32.9340 33.3030 121° Southeast 519 597 30,200 -3,511 Descending FlightAware ADS-B
Wed 09:53:49 32.8790 33.4090 122° Southeast 526 605 27,200 -3,818 Descending FlightAware ADS-B
Wed 09:54:25 32.8330 33.4960 122° Southeast 509 586 25,300 -3,117 Descending FlightAware ADS-B
Wed 09:55:06 32.7860 33.5870 122° Southeast 492 566 23,200 -2,643 Descending FlightAware ADS-B
Wed 09:55:49 32.7350 33.6840 122° Southeast 463 533 21,600 -2,500 Descending FlightAware ADS-B
Wed 09:56:30 32.6890 33.7740 121° Southeast 450 518 19,700 -3,349 Descending FlightAware ADS-B
Wed 09:57:15 32.6380 33.8690 122° Southeast 455 524 16,800 -3,000 Descending FlightAware ADS-B
Wed 09:57:56 32.5960 33.9510 121° Southeast 421 484 15,400 -2,222 Descending FlightAware ADS-B
Wed 09:58:36 32.5610 34.0280 118° Southeast 386 444 13,800 -2,051 Descending FlightAware ADS-B
Wed 09:59:15 32.5550 34.1080 95° East 349 402 12,700 -1,658 Descending FlightAware ADS-B
Wed 09:59:52 32.5510 34.1740 94° East 326 375 11,700 -1,902 Descending FlightAware ADS-B
Wed 10:00:37 32.5470 34.2540 93° East 313 360 10,100 -2,214 Descending FlightAware ADS-B
Wed 10:01:16 32.5220 34.3090 118° Southeast 303 349 8,600 -1,385 Descending FlightAware ADS-B
Wed 10:01:42 32.4980 34.3320 141° Southeast 303 349 8,600  Level FlightAware ADS-B
Wed 10:01:54 32.4870 34.3420 143° Southeast 303 349 8,600  Level FlightAware ADS-B
Wed 10:02:43 32.4410 34.3850 142° Southeast 303 349 8,600  Level FlightAware ADS-B
Wed 10:03:08 32.4170 34.4060 144° Southeast 303 349 8,600 -1,433 Level FlightAware ADS-B
Wed 10:04:45 32.2800 34.4110 178° South 5,600 -1,761 Descending FlightAware ADS-B
Wed 10:04:57 32.2700 34.4210 140° Southeast 277 319 5,400 -300 Descending FlightAware ADS-B
Wed 10:05:25 32.2470 34.4440 140° Southeast 277 319 5,400 -82 Level FlightAware ADS-B
Wed 10:06:10 32.2070 34.4970 132° Southeast 278 320 5,300 -81 Descending FlightAware ADS-B
Wed 10:06:39 32.1860 34.5450 117° Southeast 278 320 5,300  Level FlightAware ADS-B
Wed 10:06:52 32.1810 34.5560 118° Southeast 278 320 5,300  Level FlightAware ADS-B
Wed 10:07:23 32.1620 34.5930 121° Southeast 278 320 5,300  Level FlightAware ADS-B
Wed 10:07:50 32.1390 34.6350 123° Southeast 278 320 5,300  Level FlightAware ADS-B
Wed 10:08:26 32.1130 34.6810 124° Southeast 258 297 5,300  Level FlightAware ADS-B
Wed 10:08:39 32.1060 34.6940 122° Southeast 258 297 5,300 -167 Level FlightAware ADS-B
Wed 10:09:02 32.0910 34.7210 123° Southeast 256 295 5,200  Descending FlightAware ADS-B
Wed 10:09:20 32.0780 34.7450 123° Southeast 249 287 5,300 128 Climbing FlightAware ADS-B
Wed 10:09:49 32.0620 34.7720 125° Southeast 234 269 5,300 -211 Level FlightAware ADS-B
Wed 10:10:17 32.0380 34.8010 134° Southeast 227 261 5,100 -450 Descending FlightAware ADS-B
Wed 10:10:29 32.0300 34.8100 136° Southeast 226 260 5,000 -429 Descending FlightAware ADS-B
Wed 10:10:59 32.0080 34.8340 137° Southeast 211 243 4,800 -783 Descending FlightAware ADS-B
Wed 10:12:47 31.9760 34.9210 125° Southeast 200 230 3,200 -1,099 Descending FlightAware ADS-B
Wed 10:13:00 32.0000 34.8667 125° Southeast  Level FlightAware Approximate
Wed 10:13:10 31.9850 34.9480 69° East 187 215 2,400  Level FlightAware ADS-B
Wed 10:13:39 31.9950 34.9720 64° Northeast 176 203 2,300 -207 Descending FlightAware ADS-B
Wed 10:16:00 32.0095 34.8769 280° West  Level Estimated
Wed 10:17:00 32.0095 34.8769 270° West  Level Estimated
Wed 10:18:00 32.0095 34.8769 270° West  Level Estimated
Wed 10:19:00 32.0095 34.8769 270° West  Level Estimated
Wed 10:20:00 32.0095 34.8769 270° West  Level Estimated
Wed 10:21:00 32.0095 34.8769 270° West  Level Estimated
Wed 10:22:00 32.0095 34.8769 270° West  Level Estimated
Wed 10:23:00 32.0095 34.8769 270° West  Level Estimated
Wed 10:24:00 32.0095 34.8769 270° West  Level Estimated
Wed 10:25:00 32.0095 34.8769 270° West  Level Estimated
Wed 10:26:00 32.0095 34.8769 270° West  Level Estimated
Wed 10:27:00 32.0095 34.8769 270° West  Level Estimated
Wed 10:28:00 32.0095 34.8769 270° West  Level Estimated
Wed 10:29:00 32.0095 34.8769 270° West  Level Estimated
Wed 10:30:00 32.0095 34.8769 270° West  Level Estimated
Wed 10:31:00 32.0095 34.8769 270° West  Level Estimated
Wed 10:32:00 32.0095 34.8769 270° West  Level Estimated
Wed 10:33:00 32.0095 34.8769 270° West  Level Estimated

Login

Don't have an account? Register now (free) for customized features, flight alerts, and more!